Time;durP1;ratioP1;P1;durP2;ratioP2;P2;SDS_P1;SDS_P2;PMS_P1;PMS_P2;Temp;Humidity;BMP_temperature;BMP_pressure;BME280_temperature;BME280_humidity;BME280_pressure;Samples;Min_cycle;Max_cycle;Signal;HPM_P1;HPM_P2
2023/07/14 00:00:29;;;;;;;17.90;9.13;;;16.70;99.90;;;;;;5009587;28;20049;-59
2023/07/14 00:02:56;;;;;;;11.15;8.57;;;16.70;99.90;;;;;;5025510;28;20049;-59
2023/07/14 00:05:32;;;;;;;13.88;9.60;;;16.70;99.90;;;;;;5009139;28;20056;-59
2023/07/14 00:07:58;;;;;;;13.70;9.02;;;16.70;99.90;;;;;;5002292;28;20042;-59
2023/07/14 00:10:26;;;;;;;12.55;8.45;;;16.70;99.90;;;;;;5011235;28;20037;-57
2023/07/14 00:12:52;;;;;;;13.23;8.75;;;16.70;99.90;;;;;;5010197;28;20048;-58
2023/07/14 00:15:21;;;;;;;10.95;8.98;;;16.70;99.90;;;;;;5009664;28;20570;-58
2023/07/14 00:17:50;;;;;;;11.95;9.00;;;16.70;99.90;;;;;;5007842;28;20084;-59
2023/07/14 00:20:36;;;;;;;14.45;9.85;;;16.70;99.90;;;;;;4988671;28;20120;-60
2023/07/14 00:23:11;;;;;;;16.13;10.23;;;16.70;99.90;;;;;;5007993;28;20064;-59
2023/07/14 00:25:37;;;;;;;11.80;9.43;;;16.70;99.90;;;;;;4997444;28;20433;-57
2023/07/14 00:28:09;;;;;;;14.07;9.27;;;16.70;99.90;;;;;;5004418;28;20477;-60
2023/07/14 00:30:36;;;;;;;12.00;8.98;;;16.70;99.90;;;;;;4991373;28;20524;-58
2023/07/14 00:33:10;;;;;;;11.45;9.25;;;16.70;99.90;;;;;;5017567;28;20037;-60
2023/07/14 00:35:36;;;;;;;12.43;9.13;;;16.70;99.90;;;;;;5018903;28;20563;-60
2023/07/14 00:38:02;;;;;;;16.90;10.60;;;16.70;99.90;;;;;;5026001;28;20083;-60
2023/07/14 00:40:30;;;;;;;13.10;10.00;;;16.70;99.90;;;;;;5008205;28;20435;-58
2023/07/14 00:42:58;;;;;;;13.15;10.45;;;16.70;99.90;;;;;;5029792;28;20341;-60
2023/07/14 00:45:28;;;;;;;12.20;10.38;;;16.70;99.90;;;;;;5006045;28;20048;-60
2023/07/14 00:48:03;;;;;;;12.88;9.70;;;16.70;99.90;;;;;;5025919;28;20042;-55
2023/07/14 00:50:43;;;;;;;14.35;9.60;;;16.70;99.90;;;;;;5008180;28;20116;-57
2023/07/14 00:53:19;;;;;;;13.68;10.40;;;16.70;99.90;;;;;;5007760;28;20508;-57
2023/07/14 00:55:54;;;;;;;10.35;9.25;;;16.70;99.90;;;;;;5010487;28;20056;-57
2023/07/14 00:58:23;;;;;;;13.10;9.43;;;16.70;99.90;;;;;;5007694;28;20124;-57
2023/07/14 01:01:24;;;;;;;12.05;10.55;;;16.70;99.90;;;;;;5009448;28;20045;-57
2023/07/14 01:03:57;;;;;;;14.35;10.55;;;16.60;99.90;;;;;;5018279;28;20083;-57
2023/07/14 01:06:29;;;;;;;18.15;10.30;;;16.60;99.90;;;;;;5008532;28;20404;-57
2023/07/14 01:09:08;;;;;;;15.00;11.83;;;16.60;99.90;;;;;;5008020;28;20029;-57
2023/07/14 01:11:44;;;;;;;16.20;10.32;;;16.50;99.90;;;;;;5008810;28;20045;-57
2023/07/14 01:14:14;;;;;;;15.10;11.27;;;16.50;99.90;;;;;;5009248;28;20048;-57
2023/07/14 01:16:41;;;;;;;14.60;10.70;;;16.50;99.90;;;;;;5010803;28;20148;-57
2023/07/14 01:19:23;;;;;;;16.27;11.57;;;16.50;99.90;;;;;;5009984;28;20037;-57
2023/07/14 01:21:54;;;;;;;14.82;11.00;;;16.50;99.90;;;;;;5011120;28;20292;-57
2023/07/14 01:24:27;;;;;;;13.85;11.02;;;16.40;99.90;;;;;;5008516;28;20450;-56
2023/07/14 01:27:05;;;;;;;16.48;10.60;;;16.40;99.90;;;;;;5005376;28;20052;-56
2023/07/14 01:29:33;;;;;;;14.90;11.02;;;16.40;99.90;;;;;;5008068;28;20041;-56
2023/07/14 01:31:59;;;;;;;13.27;10.35;;;16.40;99.90;;;;;;5024805;28;20488;-57
2023/07/14 01:34:25;;;;;;;14.60;11.02;;;16.40;99.90;;;;;;5007441;28;20520;-56
2023/07/14 01:36:56;;;;;;;15.77;11.63;;;16.40;99.90;;;;;;5014514;28;20045;-58
2023/07/14 01:39:22;;;;;;;17.33;11.70;;;16.40;99.90;;;;;;5006904;28;20428;-57
2023/07/14 01:41:48;;;;;;;15.98;11.93;;;16.40;99.90;;;;;;5000448;28;20060;-56
2023/07/14 01:44:19;;;;;;;13.77;11.27;;;16.40;99.90;;;;;;4995477;28;20037;-56
2023/07/14 01:46:47;;;;;;;15.18;12.05;;;16.40;99.90;;;;;;4994632;28;20532;-57
2023/07/14 01:49:27;;;;;;;13.23;10.30;;;16.40;99.90;;;;;;4995960;28;20041;-57
2023/07/14 01:51:56;;;;;;;16.75;12.00;;;16.40;99.90;;;;;;4995584;28;20090;-57
2023/07/14 01:55:04;;;;;;;14.43;11.65;;;16.40;99.90;;;;;;5001335;28;20050;-56
2023/07/14 01:57:33;;;;;;;14.68;12.52;;;16.30;99.90;;;;;;4982045;28;20054;-57
2023/07/14 02:00:11;;;;;;;16.52;12.85;;;16.30;99.90;;;;;;5004270;28;20622;-57
2023/07/14 02:02:38;;;;;;;14.73;11.45;;;16.30;99.90;;;;;;4998388;28;20068;-57
2023/07/14 02:05:30;;;;;;;17.00;12.38;;;16.30;99.90;;;;;;5002889;28;20045;-56
2023/07/14 02:08:01;;;;;;;22.13;12.82;;;16.30;99.90;;;;;;5014192;28;20046;-57
2023/07/14 02:10:27;;;;;;;14.25;12.75;;;16.30;99.90;;;;;;4985512;28;20032;-56
2023/07/14 02:12:54;;;;;;;12.88;10.70;;;16.20;99.90;;;;;;5023431;28;20493;-57
2023/07/14 02:15:25;;;;;;;15.43;11.68;;;16.20;99.90;;;;;;5007194;28;20096;-57
2023/07/14 02:17:52;;;;;;;17.15;11.70;;;16.20;99.90;;;;;;5003172;28;20050;-56
2023/07/14 02:20:38;;;;;;;14.07;11.82;;;16.20;99.90;;;;;;4998931;28;20185;-55
2023/07/14 02:23:08;;;;;;;14.63;11.95;;;16.10;99.90;;;;;;5010830;28;20052;-57
2023/07/14 02:25:46;;;;;;;14.90;11.65;;;16.10;99.90;;;;;;5008466;28;20057;-57
2023/07/14 02:28:13;;;;;;;16.25;12.32;;;16.10;99.90;;;;;;5001800;28;20509;-57
2023/07/14 02:30:42;;;;;;;16.77;11.85;;;16.10;99.90;;;;;;4992392;28;20404;-57
2023/07/14 02:33:15;;;;;;;13.52;10.50;;;16.10;99.90;;;;;;5023225;28;20041;-57
2023/07/14 02:36:03;;;;;;;15.95;10.60;;;16.00;99.90;;;;;;5020401;28;20544;-56
2023/07/14 02:38:29;;;;;;;12.00;10.73;;;16.00;99.90;;;;;;4982762;28;20052;-57
2023/07/14 02:41:20;;;;;;;13.30;10.85;;;16.00;99.90;;;;;;5014347;28;20343;-57
2023/07/14 02:43:53;;;;;;;16.45;11.65;;;16.00;99.90;;;;;;5006234;28;20056;-57
2023/07/14 02:46:26;;;;;;;13.82;9.88;;;16.00;99.90;;;;;;4998908;23;20559;-56
2023/07/14 02:48:52;;;;;;;12.85;10.80;;;15.90;99.90;;;;;;4987802;28;20057;-56
2023/07/14 02:51:18;;;;;;;14.45;10.25;;;15.90;99.90;;;;;;5003343;28;21187;-52
2023/07/14 02:53:44;;;;;;;14.02;10.02;;;15.90;99.90;;;;;;4994535;28;20042;-55
2023/07/14 02:56:10;;;;;;;18.55;11.50;;;15.90;99.90;;;;;;4999345;28;20452;-54
2023/07/14 02:58:36;;;;;;;15.75;11.30;;;15.90;99.90;;;;;;5032496;28;20034;-56
2023/07/14 03:01:04;;;;;;;13.82;10.43;;;15.80;99.90;;;;;;5006106;28;20131;-53
2023/07/14 03:03:34;;;;;;;15.55;11.18;;;15.80;99.90;;;;;;5010665;28;20073;-55
2023/07/14 03:06:00;;;;;;;14.98;11.43;;;15.80;99.90;;;;;;5011134;28;20049;-54
2023/07/14 03:08:28;;;;;;;15.00;10.38;;;15.80;99.90;;;;;;4993126;28;20040;-55
2023/07/14 03:10:58;;;;;;;12.73;8.68;;;15.80;99.90;;;;;;5011055;28;20033;-55
2023/07/14 03:13:25;;;;;;;12.38;8.95;;;15.80;99.90;;;;;;5009932;28;20512;-55
2023/07/14 03:15:51;;;;;;;13.30;10.52;;;15.70;99.90;;;;;;5027737;28;20055;-55
2023/07/14 03:18:18;;;;;;;14.38;9.85;;;15.70;99.90;;;;;;4991617;28;20094;-56
2023/07/14 03:20:44;;;;;;;15.10;10.52;;;15.70;99.90;;;;;;5013910;28;20123;-56
2023/07/14 03:23:10;;;;;;;12.38;9.23;;;15.70;99.90;;;;;;5023351;28;20044;-53
2023/07/14 03:25:36;;;;;;;15.60;10.07;;;15.60;99.90;;;;;;5025431;28;20045;-57
2023/07/14 03:28:05;;;;;;;15.00;8.93;;;15.70;99.90;;;;;;5010870;28;20128;-56
2023/07/14 03:30:38;;;;;;;16.65;9.60;;;15.60;99.90;;;;;;5004447;28;20791;-55
2023/07/14 03:33:04;;;;;;;11.77;9.05;;;15.60;99.90;;;;;;4991870;28;20299;-55
2023/07/14 03:35:30;;;;;;;11.55;9.30;;;15.50;99.90;;;;;;5036117;28;20052;-55
2023/07/14 03:37:56;;;;;;;14.38;9.57;;;15.50;99.90;;;;;;4990764;28;20484;-56
2023/07/14 03:40:22;;;;;;;13.98;10.23;;;15.50;99.90;;;;;;5011070;28;20055;-55
2023/07/14 03:42:47;;;;;;;13.90;8.75;;;15.50;99.90;;;;;;4994352;28;20127;-56
2023/07/14 03:45:14;;;;;;;20.15;11.07;;;15.50;99.90;;;;;;5006898;28;20029;-53
2023/07/14 03:47:40;;;;;;;10.13;8.30;;;15.50;99.90;;;;;;5030358;28;20120;-54
2023/07/14 03:50:07;;;;;;;11.98;9.13;;;15.50;99.90;;;;;;5009655;28;20044;-56
2023/07/14 03:52:33;;;;;;;11.57;8.63;;;15.50;99.90;;;;;;5002248;28;20034;-55
2023/07/14 03:54:59;;;;;;;14.25;8.65;;;15.50;99.90;;;;;;5027104;28;20067;-55
2023/07/14 03:57:25;;;;;;;12.38;9.48;;;15.50;99.90;;;;;;5012829;28;20505;-56
2023/07/14 03:59:51;;;;;;;14.70;8.27;;;15.50;99.90;;;;;;4984267;28;20064;-60
2023/07/14 04:02:17;;;;;;;12.98;9.27;;;15.50;99.90;;;;;;5012088;28;20044;-55
2023/07/14 04:04:43;;;;;;;13.40;9.02;;;15.50;99.90;;;;;;5011184;28;20520;-54
2023/07/14 04:07:09;;;;;;;12.73;9.05;;;15.50;99.90;;;;;;4994334;28;20045;-56
2023/07/14 04:09:35;;;;;;;12.65;8.82;;;15.50;99.90;;;;;;5004503;28;20042;-56
2023/07/14 04:12:01;;;;;;;12.52;8.07;;;15.50;99.90;;;;;;4989900;28;20128;-57
2023/07/14 04:14:26;;;;;;;12.30;8.43;;;15.50;99.90;;;;;;5009169;28;20400;-59
2023/07/14 04:16:52;;;;;;;15.30;9.02;;;15.50;99.90;;;;;;5009733;28;20049;-55
2023/07/14 04:19:18;;;;;;;15.20;8.15;;;15.50;99.90;;;;;;5013468;28;20062;-52
2023/07/14 04:21:43;;;;;;;14.52;8.13;;;15.50;99.90;;;;;;5021569;28;20572;-57
2023/07/14 04:24:09;;;;;;;12.63;8.23;;;15.50;99.90;;;;;;5025346;28;20563;-53
2023/07/14 04:26:36;;;;;;;13.45;8.07;;;15.50;99.90;;;;;;5007997;28;20037;-54
2023/07/14 04:29:04;;;;;;;10.85;7.35;;;15.50;99.90;;;;;;5005282;28;20143;-60
2023/07/14 04:31:30;;;;;;;11.68;6.75;;;15.50;99.90;;;;;;5009240;28;20033;-56
2023/07/14 04:33:55;;;;;;;12.23;7.90;;;15.50;99.90;;;;;;5009915;28;20120;-57
2023/07/14 04:36:21;;;;;;;9.90;7.03;;;15.50;99.90;;;;;;5026890;28;20449;-53
2023/07/14 04:39:07;;;;;;;11.98;8.45;;;15.50;99.90;;;;;;5013394;28;20088;-54
2023/07/14 04:41:34;;;;;;;17.13;7.85;;;15.60;99.90;;;;;;5009694;28;20029;-59
2023/07/14 04:44:18;;;;;;;14.05;8.23;;;15.50;99.90;;;;;;5006912;28;20038;-56
2023/07/14 04:46:44;;;;;;;;;;;15.60;99.90;;;;;;5006424;28;20060;-56
2023/07/14 04:49:11;;;;;;;12.63;7.93;;;15.50;99.90;;;;;;5009830;28;20039;-56
2023/07/14 04:51:38;;;;;;;13.13;8.13;;;15.50;99.90;;;;;;5005954;28;20034;-57
2023/07/14 04:54:05;;;;;;;10.40;7.22;;;15.60;99.90;;;;;;4994128;28;21609;-54
2023/07/14 04:56:32;;;;;;;12.93;7.65;;;15.60;99.90;;;;;;5023328;28;20040;-57
2023/07/14 04:58:58;;;;;;;15.25;8.40;;;15.60;99.90;;;;;;5010563;28;20114;-52
2023/07/14 05:01:24;;;;;;;12.52;7.05;;;15.60;99.90;;;;;;4984984;28;20245;-57
2023/07/14 05:03:50;;;;;;;14.50;6.82;;;15.70;99.90;;;;;;4991739;28;20635;-54
2023/07/14 05:06:16;;;;;;;10.63;6.88;;;15.70;99.90;;;;;;4999658;28;20049;-57
2023/07/14 05:08:42;;;;;;;12.80;6.80;;;15.80;99.90;;;;;;5010061;28;20054;-56
2023/07/14 05:11:07;;;;;;;11.52;6.95;;;15.80;99.90;;;;;;4987174;28;20290;-57
2023/07/14 05:13:34;;;;;;;8.30;5.60;;;15.90;99.90;;;;;;5007063;28;20400;-55
2023/07/14 05:16:00;;;;;;;9.75;6.25;;;16.00;99.90;;;;;;4992560;28;20451;-56
2023/07/14 05:18:25;;;;;;;14.68;7.35;;;16.00;99.90;;;;;;4994018;28;20045;-57
2023/07/14 05:20:56;;;;;;;9.90;5.95;;;16.10;99.90;;;;;;4987176;28;20042;-58
2023/07/14 05:23:22;;;;;;;12.32;6.38;;;16.10;99.90;;;;;;5026515;28;20136;-57
2023/07/14 05:25:48;;;;;;;10.20;6.10;;;16.20;99.90;;;;;;5012396;28;20120;-56
2023/07/14 05:28:14;;;;;;;10.63;6.15;;;16.20;99.90;;;;;;5009180;28;20080;-54
2023/07/14 05:30:39;;;;;;;10.32;5.72;;;16.30;99.90;;;;;;5006329;28;20045;-58
2023/07/14 05:33:05;;;;;;;10.82;5.80;;;16.30;99.90;;;;;;4995984;28;20041;-54
2023/07/14 05:35:31;;;;;;;12.25;6.20;;;16.40;99.90;;;;;;5003312;28;20053;-58
2023/07/14 05:37:56;;;;;;;12.13;7.43;;;16.50;99.90;;;;;;5007210;28;20045;-57
2023/07/14 05:40:23;;;;;;;16.52;6.35;;;16.50;99.90;;;;;;4991632;28;20331;-56
2023/07/14 05:42:49;;;;;;;10.90;6.10;;;16.60;99.90;;;;;;5007632;28;20049;-53
2023/07/14 05:45:15;;;;;;;13.23;6.68;;;16.60;99.90;;;;;;5000334;28;20518;-54
2023/07/14 05:47:44;;;;;;;11.13;6.63;;;16.70;99.90;;;;;;5002845;28;20076;-56
2023/07/14 05:50:11;;;;;;;11.63;7.00;;;16.80;99.90;;;;;;5010535;28;20045;-60
2023/07/14 05:52:36;;;;;;;9.73;6.28;;;16.90;99.90;;;;;;5009278;28;20045;-55
2023/07/14 05:55:05;;;;;;;9.50;6.00;;;17.00;99.90;;;;;;4990344;28;20234;-54
2023/07/14 05:57:32;;;;;;;8.95;5.47;;;17.10;99.90;;;;;;5021806;28;20440;-54
2023/07/14 05:59:58;;;;;;;11.65;6.15;;;17.10;99.90;;;;;;5007208;28;20655;-55
2023/07/14 06:02:24;;;;;;;8.05;5.60;;;17.20;99.90;;;;;;4990398;28;20128;-52
2023/07/14 06:04:50;;;;;;;11.18;5.90;;;17.30;99.90;;;;;;5005099;28;20114;-58
2023/07/14 06:07:16;;;;;;;7.57;5.07;;;17.40;99.90;;;;;;5009440;28;20481;-54
2023/07/14 06:09:42;;;;;;;10.07;5.03;;;17.40;99.90;;;;;;5010004;28;20095;-55
2023/07/14 06:12:10;;;;;;;14.23;5.32;;;17.50;99.90;;;;;;4991052;28;20037;-53
2023/07/14 06:14:37;;;;;;;10.75;5.65;;;17.60;99.90;;;;;;4989218;28;20045;-52
2023/07/14 06:17:05;;;;;;;7.07;5.15;;;17.60;99.90;;;;;;5011625;28;20508;-51
2023/07/14 06:19:31;;;;;;;9.40;5.05;;;17.70;99.90;;;;;;5006760;28;20055;-59
2023/07/14 06:21:57;;;;;;;14.88;4.55;;;17.80;99.90;;;;;;5003341;28;20164;-53
2023/07/14 06:24:23;;;;;;;10.95;4.90;;;17.80;99.90;;;;;;5010616;28;20477;-56
2023/07/14 06:26:49;;;;;;;10.55;5.25;;;17.90;99.90;;;;;;5022334;28;20311;-54
2023/07/14 06:29:15;;;;;;;9.18;4.93;;;18.00;99.90;;;;;;5027134;28;20268;-52
2023/07/14 06:31:41;;;;;;;11.80;4.80;;;18.00;99.90;;;;;;5012934;28;20049;-53
2023/07/14 06:34:07;;;;;;;9.70;4.82;;;18.10;99.90;;;;;;4992764;28;20045;-59
2023/07/14 06:36:33;;;;;;;12.50;5.00;;;18.20;99.90;;;;;;4993039;28;20385;-52
2023/07/14 06:39:00;;;;;;;8.07;4.60;;;18.20;99.90;;;;;;4988386;28;20044;-54
2023/07/14 06:41:26;;;;;;;11.73;5.25;;;18.30;99.90;;;;;;5006467;28;20404;-54
2023/07/14 06:43:53;;;;;;;10.35;5.60;;;18.30;99.90;;;;;;4991541;28;20052;-54
2023/07/14 06:46:19;;;;;;;11.70;5.20;;;18.40;99.90;;;;;;5008505;28;20500;-53
2023/07/14 06:48:45;;;;;;;10.88;4.70;;;18.40;99.90;;;;;;5026124;28;20034;-58
2023/07/14 06:51:14;;;;;;;12.30;5.75;;;18.50;99.90;;;;;;5028599;28;20088;-56
2023/07/14 06:53:41;;;;;;;9.45;5.82;;;18.60;99.90;;;;;;5004844;28;20041;-55
2023/07/14 06:56:07;;;;;;;9.30;5.45;;;18.70;99.90;;;;;;4997635;28;20041;-54
2023/07/14 06:58:34;;;;;;;11.80;4.70;;;18.70;99.90;;;;;;4975823;28;20045;-53
2023/07/14 07:01:01;;;;;;;10.18;4.82;;;18.80;99.90;;;;;;5028524;28;20037;-56
2023/07/14 07:03:27;;;;;;;10.20;5.55;;;18.90;99.90;;;;;;5007505;28;20145;-57
2023/07/14 07:05:53;;;;;;;12.77;5.25;;;19.00;99.90;;;;;;4992671;28;20033;-54
2023/07/14 07:08:19;;;;;;;7.55;4.13;;;19.00;99.90;;;;;;5004220;28;20109;-52
2023/07/14 07:10:45;;;;;;;9.48;5.18;;;19.10;99.90;;;;;;5009267;28;20045;-55
2023/07/14 07:13:12;;;;;;;9.43;5.00;;;19.20;99.90;;;;;;5011616;28;20121;-56
2023/07/14 07:15:38;;;;;;;10.57;5.50;;;19.30;99.90;;;;;;5010425;28;20045;-54
2023/07/14 07:18:04;;;;;;;16.83;6.05;;;19.30;99.90;;;;;;4984860;28;20049;-58
2023/07/14 07:20:30;;;;;;;11.73;6.30;;;19.40;99.90;;;;;;5006432;28;20135;-53
2023/07/14 07:22:56;;;;;;;18.92;6.38;;;19.40;99.90;;;;;;5015670;28;20091;-54
2023/07/14 07:25:22;;;;;;;12.13;5.80;;;19.40;99.90;;;;;;5022251;28;20132;-54
2023/07/14 07:27:48;;;;;;;11.55;6.22;;;19.40;99.90;;;;;;5002167;28;20452;-56
2023/07/14 07:30:14;;;;;;;11.20;6.32;;;19.40;99.90;;;;;;5016866;28;20042;-54
2023/07/14 07:32:41;;;;;;;12.20;6.22;;;19.40;99.90;;;;;;4994502;28;20092;-56
2023/07/14 07:35:08;;;;;;;13.20;6.65;;;19.50;99.90;;;;;;4991128;28;20116;-52
2023/07/14 07:37:34;;;;;;;10.20;5.85;;;19.40;99.90;;;;;;5027599;28;20646;-54
2023/07/14 07:40:00;;;;;;;11.20;6.63;;;19.40;99.90;;;;;;4992770;28;20120;-53
2023/07/14 07:42:27;;;;;;;8.65;6.07;;;19.40;99.90;;;;;;5004795;28;20057;-54
2023/07/14 07:44:53;;;;;;;9.75;5.47;;;19.50;99.90;;;;;;5028316;28;20049;-55
2023/07/14 07:47:19;;;;;;;10.82;4.93;;;19.60;99.90;;;;;;5009780;28;20046;-58
2023/07/14 07:49:45;;;;;;;8.43;3.90;;;19.80;99.90;;;;;;5010914;28;20040;-54
2023/07/14 07:52:12;;;;;;;7.88;4.32;;;19.80;99.90;;;;;;5009365;28;20042;-54
2023/07/14 07:54:41;;;;;;;6.30;3.67;;;19.90;99.90;;;;;;5019495;28;20570;-56
2023/07/14 07:57:09;;;;;;;5.90;3.53;;;20.00;99.90;;;;;;5010968;28;20044;-55
2023/07/14 07:59:36;;;;;;;6.95;3.75;;;20.00;99.90;;;;;;5007791;28;20038;-63
2023/07/14 08:02:02;;;;;;;7.07;4.18;;;20.10;99.90;;;;;;4985264;28;20045;-59
2023/07/14 08:04:30;;;;;;;7.10;3.65;;;20.20;99.90;;;;;;5005886;28;20625;-56
2023/07/14 08:06:56;;;;;;;5.15;3.40;;;20.30;99.90;;;;;;5012477;28;20045;-55
2023/07/14 08:09:22;;;;;;;6.03;3.33;;;20.40;99.90;;;;;;5010504;28;20048;-54
2023/07/14 08:11:48;;;;;;;6.78;3.83;;;20.50;99.90;;;;;;5009284;28;20416;-55
2023/07/14 08:14:16;;;;;;;6.10;3.53;;;20.60;99.90;;;;;;4995226;28;20049;-57
2023/07/14 08:16:42;;;;;;;6.28;4.05;;;20.70;99.90;;;;;;5009267;28;20048;-59
2023/07/14 08:19:08;;;;;;;6.65;4.18;;;20.80;99.90;;;;;;4994971;28;20044;-55
2023/07/14 08:21:37;;;;;;;7.82;4.10;;;20.90;99.90;;;;;;5016144;28;20054;-57
2023/07/14 08:24:04;;;;;;;6.13;4.28;;;21.00;99.90;;;;;;5011812;28;20046;-57
2023/07/14 08:26:33;;;;;;;7.88;3.88;;;21.00;99.90;;;;;;5011761;28;20103;-57
2023/07/14 08:28:59;;;;;;;5.97;3.92;;;21.00;99.90;;;;;;5002356;28;20047;-59
2023/07/14 08:31:25;;;;;;;6.57;3.80;;;21.00;99.90;;;;;;5003052;28;20030;-58
2023/07/14 08:33:51;;;;;;;6.53;4.28;;;21.10;99.90;;;;;;5008019;28;20124;-55
2023/07/14 08:36:18;;;;;;;8.93;4.28;;;21.20;99.90;;;;;;5008176;28;20048;-57
2023/07/14 08:38:44;;;;;;;7.97;3.60;;;21.40;99.90;;;;;;4986028;28;20499;-55
2023/07/14 08:41:16;;;;;;;5.90;3.47;;;21.50;99.90;;;;;;5019645;28;20041;-57
2023/07/14 08:44:11;;;;;;;6.97;3.33;;;21.50;99.90;;;;;;4990770;28;20048;-58
2023/07/14 08:46:59;;;;;;;8.10;4.05;;;21.60;99.80;;;;;;5007488;28;20141;-57
2023/07/14 08:49:36;;;;;;;5.38;3.40;;;21.80;99.70;;;;;;5007600;28;20049;-61
2023/07/14 08:52:06;;;;;;;7.15;3.28;;;21.90;99.20;;;;;;5020505;28;20041;-55
2023/07/14 08:54:40;;;;;;;7.15;3.38;;;21.90;98.90;;;;;;5007855;28;20046;-54
2023/07/14 08:57:15;;;;;;;5.45;2.80;;;22.00;98.50;;;;;;5009000;28;20045;-59
2023/07/14 08:59:41;;;;;;;6.20;3.00;;;22.10;98.20;;;;;;5023927;28;20029;-56
2023/07/14 09:02:45;;;;;;;6.18;3.40;;;22.20;97.70;;;;;;5008729;28;20037;-55
2023/07/14 09:05:24;;;;;;;7.20;3.00;;;22.20;97.60;;;;;;5007737;28;20041;-62
2023/07/14 09:07:57;;;;;;;5.53;3.58;;;22.40;97.90;;;;;;4987202;28;20033;-57
2023/07/14 09:10:55;;;;;;;8.43;3.13;;;22.40;96.60;;;;;;4986865;28;20049;-56
2023/07/14 09:13:44;;;;;;;5.10;3.15;;;22.40;96.90;;;;;;4972839;28;20096;-55
2023/07/14 09:16:15;;;;;;;7.90;2.90;;;22.30;97.30;;;;;;5019785;28;20306;-57
2023/07/14 09:18:44;;;;;;;6.03;2.83;;;22.20;97.10;;;;;;5002288;28;20448;-61
2023/07/14 09:21:25;;;;;;;7.88;3.45;;;22.00;96.80;;;;;;5025193;28;20061;-57
2023/07/14 09:24:35;;;;;;;6.82;2.53;;;22.00;96.70;;;;;;4988740;28;20052;-55
2023/07/14 09:27:03;;;;;;;5.78;2.30;;;22.10;96.60;;;;;;5003520;28;20369;-58
2023/07/14 09:29:41;;;;;;;4.95;2.72;;;22.10;96.80;;;;;;5024467;28;20035;-55
2023/07/14 09:32:39;;;;;;;5.50;2.80;;;22.20;96.80;;;;;;5013950;28;20253;-60
2023/07/14 09:35:18;;;;;;;7.22;3.05;;;22.30;96.60;;;;;;4989690;28;20073;-55
2023/07/14 09:37:49;;;;;;;5.85;2.92;;;22.60;96.40;;;;;;5017491;28;20037;-58
2023/07/14 09:40:19;;;;;;;7.25;3.05;;;22.60;96.20;;;;;;5019381;28;20053;-52
2023/07/14 09:42:56;;;;;;;6.22;3.10;;;22.60;95.70;;;;;;5011246;28;20044;-55
2023/07/14 09:45:38;;;;;;;4.80;2.45;;;22.60;95.70;;;;;;5005687;28;20116;-54
2023/07/14 09:48:19;;;;;;;4.95;2.83;;;22.60;95.70;;;;;;5002421;28;20046;-56
2023/07/14 09:51:13;;;;;;;6.25;2.97;;;22.70;96.00;;;;;;4996841;28;20542;-54
2023/07/14 09:53:58;;;;;;;5.43;2.47;;;22.80;95.40;;;;;;5001571;28;20085;-54
2023/07/14 09:56:43;;;;;;;6.07;2.90;;;23.00;95.20;;;;;;5002196;28;20069;-55
2023/07/14 09:59:21;;;;;;;5.55;2.83;;;23.00;95.30;;;;;;5012890;28;20427;-59
2023/07/14 10:01:58;;;;;;;4.50;2.90;;;23.10;94.90;;;;;;5015048;28;20555;-56
2023/07/14 10:04:32;;;;;;;4.93;3.00;;;23.10;94.80;;;;;;4995368;28;20046;-54
2023/07/14 10:07:27;;;;;;;3.95;2.58;;;23.10;94.70;;;;;;5007330;28;20388;-60
2023/07/14 10:10:14;;;;;;;5.55;3.03;;;23.30;94.40;;;;;;5029319;28;20045;-56
2023/07/14 10:12:44;;;;;;;5.32;3.00;;;23.50;94.50;;;;;;5010162;28;20038;-59
2023/07/14 10:15:36;;;;;;;4.55;2.70;;;23.60;94.10;;;;;;5012757;28;20052;-57
2023/07/14 10:18:15;;;;;;;7.20;3.50;;;23.80;93.70;;;;;;5024763;28;20049;-55
2023/07/14 10:20:53;;;;;;;6.45;3.20;;;23.70;94.70;;;;;;5028407;28;20041;-59
2023/07/14 10:23:20;;;;;;;7.03;3.67;;;23.50;94.60;;;;;;5015302;28;20447;-56
2023/07/14 10:25:51;;;;;;;5.95;3.65;;;23.20;94.70;;;;;;5006478;28;20316;-54
2023/07/14 10:28:27;;;;;;;7.45;3.83;;;23.30;95.20;;;;;;5003205;28;20045;-60
2023/07/14 10:31:15;;;;;;;6.70;3.88;;;23.40;95.30;;;;;;5004481;28;20302;-57
2023/07/14 10:33:59;;;;;;;6.93;3.42;;;23.40;94.60;;;;;;5006185;28;20036;-55
2023/07/14 10:36:28;;;;;;;;;;;23.30;94.80;;;;;;5012826;28;20073;-59
2023/07/14 10:39:00;;;;;;;6.38;3.63;;;23.00;94.40;;;;;;5031322;28;19927;-56
2023/07/14 10:41:26;;;;;;;6.85;4.40;;;22.80;94.90;;;;;;5027115;28;20176;-53
2023/07/14 10:44:28;;;;;;;6.57;4.68;;;22.90;95.40;;;;;;5030293;28;20116;-55
2023/07/14 10:47:10;;;;;;;6.00;3.60;;;23.10;95.20;;;;;;5024194;28;20064;-56
2023/07/14 10:49:42;;;;;;;5.20;3.35;;;23.40;95.20;;;;;;5008251;28;20739;-54
2023/07/14 10:52:26;;;;;;;6.35;3.20;;;23.40;94.40;;;;;;5004943;28;20099;-60
2023/07/14 10:54:58;;;;;;;7.75;3.50;;;23.80;94.10;;;;;;5022323;28;20049;-56
2023/07/14 10:57:37;;;;;;;10.02;3.85;;;23.80;93.90;;;;;;5022740;28;20056;-55
2023/07/14 11:00:24;;;;;;;5.63;3.55;;;23.80;94.10;;;;;;5018678;28;20029;-59
2023/07/14 11:03:24;;;;;;;6.28;3.90;;;24.00;94.30;;;;;;5005159;28;20430;-54
2023/07/14 11:05:57;;;;;;;7.60;3.60;;;24.10;93.70;;;;;;4995102;28;20048;-54
2023/07/14 11:08:25;;;;;;;6.50;4.20;;;24.10;93.80;;;;;;5006443;28;20041;-55
2023/07/14 11:11:12;;;;;;;8.77;3.53;;;24.10;93.90;;;;;;5010179;28;20037;-56
2023/07/14 11:14:00;;;;;;;8.60;4.30;;;24.10;94.00;;;;;;5011362;28;20048;-53
2023/07/14 11:16:54;;;;;;;6.53;4.00;;;24.10;93.40;;;;;;5027348;28;20535;-54
2023/07/14 11:19:40;;;;;;;7.18;3.20;;;24.30;94.00;;;;;;4987740;28;20767;-58
2023/07/14 11:22:36;;;;;;;6.90;3.88;;;24.50;93.40;;;;;;5008144;28;22731;-55
2023/07/14 11:25:24;;;;;;;6.63;4.05;;;24.60;93.40;;;;;;5034302;28;20042;-55
2023/07/14 11:27:59;;;;;;;7.22;3.88;;;24.60;93.10;;;;;;5024588;28;20042;-55
2023/07/14 11:30:45;;;;;;;6.75;4.05;;;24.70;93.40;;;;;;5026138;28;20045;-61
2023/07/14 11:33:37;;;;;;;9.98;4.90;;;24.60;93.10;;;;;;5016035;28;20471;-54
2023/07/14 11:36:15;;;;;;;7.82;4.53;;;24.70;92.90;;;;;;5027971;28;20198;-60
2023/07/14 11:39:13;;;;;;;10.80;3.97;;;24.80;93.10;;;;;;5006729;28;20037;-55
2023/07/14 11:41:39;;;;;;;6.90;3.70;;;24.90;92.60;;;;;;5011174;28;20052;-61
2023/07/14 11:44:17;;;;;;;10.50;4.50;;;25.20;93.20;;;;;;5024762;28;20245;-55
2023/07/14 11:46:44;;;;;;;9.00;4.72;;;25.40;93.00;;;;;;5006338;28;20092;-57
2023/07/14 11:49:34;;;;;;;7.03;4.50;;;25.20;92.50;;;;;;5007653;28;20255;-55
2023/07/14 11:52:19;;;;;;;8.98;4.65;;;25.50;92.40;;;;;;5029399;28;20400;-55
2023/07/14 11:55:06;;;;;;;7.50;4.35;;;25.60;92.00;;;;;;5005825;28;20443;-55
2023/07/14 11:57:49;;;;;;;8.35;4.95;;;25.50;91.70;;;;;;5014006;28;20505;-60
2023/07/14 12:00:26;;;;;;;5.90;3.85;;;25.40;91.60;;;;;;5025377;28;20404;-56
2023/07/14 12:03:01;;;;;;;5.60;3.88;;;25.50;92.10;;;;;;5026849;28;20560;-54
2023/07/14 12:05:27;;;;;;;6.78;3.90;;;25.30;91.60;;;;;;5011140;28;20033;-56
2023/07/14 12:08:03;;;;;;;7.60;3.58;;;25.20;91.40;;;;;;5029671;28;20043;-53
2023/07/14 12:10:38;;;;;;;10.15;3.53;;;25.20;91.40;;;;;;5005862;28;20484;-55
2023/07/14 12:13:16;;;;;;;6.78;3.70;;;25.10;90.60;;;;;;5013497;28;20131;-60
2023/07/14 12:15:43;;;;;;;7.63;3.83;;;25.10;90.90;;;;;;5002163;28;20127;-54
2023/07/14 12:18:32;;;;;;;9.00;3.90;;;25.10;91.20;;;;;;5008226;28;20045;-55
2023/07/14 12:21:16;;;;;;;9.00;5.18;;;24.90;90.70;;;;;;4995555;28;20059;-60
2023/07/14 12:23:43;;;;;;;6.80;3.67;;;24.80;91.00;;;;;;5014355;28;20049;-55
2023/07/14 12:26:15;;;;;;;9.00;4.13;;;24.70;91.50;;;;;;4987571;28;20125;-56
2023/07/14 12:28:41;;;;;;;8.55;5.05;;;24.80;91.90;;;;;;5007325;28;20033;-55
2023/07/14 12:31:16;;;;;;;8.07;4.60;;;24.90;92.10;;;;;;5002136;28;20365;-60
2023/07/14 12:33:43;;;;;;;7.80;5.03;;;24.90;91.80;;;;;;5008372;28;20561;-53
2023/07/14 12:36:18;;;;;;;10.43;4.85;;;24.90;91.90;;;;;;5005643;28;20045;-55
2023/07/14 12:38:45;;;;;;;8.25;4.20;;;24.80;91.40;;;;;;5032380;28;20041;-52
2023/07/14 12:41:12;;;;;;;8.02;4.47;;;24.80;91.80;;;;;;5013021;28;20037;-57
2023/07/14 12:43:43;;;;;;;7.50;4.63;;;24.70;92.10;;;;;;5015834;28;20053;-61
2023/07/14 12:46:30;;;;;;;9.07;4.57;;;24.70;92.10;;;;;;5012440;28;20037;-57
2023/07/14 12:49:30;;;;;;;10.70;4.88;;;24.60;92.00;;;;;;4997924;28;20033;-55
2023/07/14 12:51:56;;;;;;;7.30;4.72;;;24.50;92.40;;;;;;5004252;28;20041;-55
2023/07/14 12:54:27;;;;;;;10.30;5.25;;;24.50;92.60;;;;;;5008663;28;20068;-53
2023/07/14 12:57:00;;;;;;;10.57;5.85;;;24.30;92.40;;;;;;5013945;28;20068;-54
2023/07/14 12:59:26;;;;;;;8.82;4.53;;;24.10;92.40;;;;;;4994171;28;20385;-71
2023/07/14 13:01:53;;;;;;;8.05;4.80;;;24.00;92.80;;;;;;5011381;28;20048;-56
2023/07/14 13:04:21;;;;;;;10.32;4.65;;;23.90;93.10;;;;;;5009627;28;20053;-56